createdAt,value
2018-01-08T00:00:01.877Z,-1.90
2018-01-08T00:02:49.532Z,-1.90
2018-01-08T00:05:17.886Z,-1.90
2018-01-08T00:08:00.533Z,-1.90
2018-01-08T00:10:28.882Z,-1.90
2018-01-08T00:13:06.438Z,-2.00
2018-01-08T00:15:34.025Z,-1.90
2018-01-08T00:18:02.622Z,-1.90
2018-01-08T00:20:30.201Z,-1.90
2018-01-08T00:22:59.551Z,-2.00
2018-01-08T00:25:27.160Z,-2.00
2018-01-08T00:27:59.168Z,-2.00
2018-01-08T00:30:26.770Z,-2.00
2018-01-08T00:32:55.308Z,-2.00
2018-01-08T00:35:22.904Z,-2.00
2018-01-08T00:37:50.477Z,-2.00
2018-01-08T00:40:18.088Z,-2.00
2018-01-08T00:42:50.698Z,-2.10
2018-01-08T00:45:18.316Z,-2.00
2018-01-08T00:48:05.202Z,-2.10
2018-01-08T00:50:33.572Z,-2.10
2018-01-08T00:53:03.841Z,-2.10
2018-01-08T00:55:31.458Z,-2.10
2018-01-08T00:58:00.792Z,-2.10
2018-01-08T01:00:28.393Z,-2.10
2018-01-08T01:02:58.999Z,-2.10
2018-01-08T01:05:26.653Z,-2.10
2018-01-08T01:08:08.986Z,-2.00
2018-01-08T01:10:36.598Z,-2.10
2018-01-08T01:13:13.878Z,-2.10
2018-01-08T01:15:41.479Z,-2.00
2018-01-08T01:18:10.041Z,-2.10
2018-01-08T01:20:37.640Z,-2.10
2018-01-08T01:23:05.229Z,-2.10
2018-01-08T01:25:33.578Z,-2.10
2018-01-08T01:28:03.183Z,-2.10
2018-01-08T01:30:30.758Z,-2.10
2018-01-08T01:33:08.814Z,-2.10
2018-01-08T01:35:36.406Z,-2.20
2018-01-08T01:38:04.004Z,-2.10
2018-01-08T01:40:31.589Z,-2.10
2018-01-08T01:43:00.192Z,-2.20
2018-01-08T01:45:27.765Z,-2.20
2018-01-08T01:48:01.751Z,-2.20
2018-01-08T01:50:29.335Z,-2.20
2018-01-08T01:53:04.428Z,-2.20
2018-01-08T01:55:32.009Z,-2.30
2018-01-08T01:58:00.641Z,-2.20
2018-01-08T02:00:29.005Z,-2.30
2018-01-08T02:02:58.381Z,-2.30
2018-01-08T02:05:26.004Z,-2.30
2018-01-08T02:08:05.232Z,-2.20
2018-01-08T02:10:32.840Z,-2.30
2018-01-08T02:13:01.398Z,-2.30
2018-01-08T02:15:29.010Z,-2.30
2018-01-08T02:17:59.281Z,-2.40
2018-01-08T02:20:26.921Z,-2.40
2018-01-08T02:23:14.844Z,-2.40
2018-01-08T02:25:43.208Z,-2.40
2018-01-08T02:28:12.550Z,-2.40
2018-01-08T02:30:40.161Z,-2.50
2018-01-08T02:33:17.677Z,-2.50
2018-01-08T02:35:45.285Z,-2.40
2018-01-08T02:38:33.564Z,-2.40
2018-01-08T02:41:01.951Z,-2.40
2018-01-08T02:43:31.310Z,-2.50
2018-01-08T02:45:58.930Z,-2.50
2018-01-08T02:48:29.992Z,-2.50
2018-01-08T02:50:57.603Z,-2.50
2018-01-08T02:53:26.965Z,-2.50
2018-01-08T02:55:54.590Z,-2.50
2018-01-08T02:58:26.783Z,-2.50
2018-01-08T03:00:54.390Z,-2.50
2018-01-08T03:03:26.432Z,-2.50
2018-01-08T03:05:54.015Z,-2.60
2018-01-08T03:08:26.161Z,-2.60
2018-01-08T03:10:53.749Z,-2.60
2018-01-08T03:13:29.442Z,-2.60
2018-01-08T03:15:57.029Z,-2.60
2018-01-08T03:18:24.630Z,-2.60
2018-01-08T03:20:52.981Z,-2.70
2018-01-08T03:23:28.585Z,-2.70
2018-01-08T03:25:56.160Z,-2.60
2018-01-08T03:28:31.069Z,-2.60
2018-01-08T03:30:59.466Z,-2.70
2018-01-08T03:33:29.094Z,-2.70
2018-01-08T03:35:56.690Z,-2.70
2018-01-08T03:38:24.302Z,-2.70
2018-01-08T03:40:51.893Z,-2.80
2018-01-08T03:43:22.193Z,-2.80
2018-01-08T03:45:49.777Z,-2.80
2018-01-08T03:48:21.386Z,-2.80
2018-01-08T03:50:49.004Z,-2.80
2018-01-08T03:53:16.606Z,-2.80
2018-01-08T03:55:44.226Z,-2.80
2018-01-08T03:58:19.468Z,-2.80
2018-01-08T04:00:47.080Z,-2.80
2018-01-08T04:03:15.646Z,-2.80
2018-01-08T04:05:43.271Z,-2.80
2018-01-08T04:08:10.869Z,-2.90
2018-01-08T04:10:38.478Z,-2.90
2018-01-08T04:13:06.839Z,-2.90
2018-01-08T04:15:34.455Z,-2.90
2018-01-08T04:18:03.977Z,-2.90
2018-01-08T04:20:31.597Z,-2.90
2018-01-08T04:23:02.769Z,-2.90
2018-01-08T04:25:30.399Z,-2.90
2018-01-08T04:28:16.666Z,-2.90
2018-01-08T04:30:44.287Z,-2.90
2018-01-08T04:33:11.867Z,-3.00
2018-01-08T04:35:39.499Z,-3.00
2018-01-08T04:38:21.042Z,-3.00
2018-01-08T04:40:49.430Z,-3.00
2018-01-08T04:43:19.797Z,-3.10
2018-01-08T04:45:47.394Z,-3.10
2018-01-08T04:48:15.007Z,-3.00
2018-01-08T04:50:42.602Z,-3.10
2018-01-08T04:53:10.225Z,-3.10
2018-01-08T04:55:37.817Z,-3.10
2018-01-08T04:58:15.373Z,-3.10
2018-01-08T05:00:42.946Z,-3.10
2018-01-08T05:03:20.641Z,-3.10
2018-01-08T05:05:48.229Z,-3.10
2018-01-08T05:08:22.006Z,-3.20
2018-01-08T05:10:49.575Z,-3.10
2018-01-08T05:13:35.014Z,-3.20
2018-01-08T05:16:02.702Z,-3.20
2018-01-08T05:18:40.918Z,-3.10
2018-01-08T05:21:08.496Z,-3.20
2018-01-08T05:23:36.128Z,-3.20
2018-01-08T05:26:03.700Z,-3.20
2018-01-08T05:28:41.293Z,-3.20
2018-01-08T05:31:08.875Z,-3.20
2018-01-08T05:33:40.743Z,-3.20
2018-01-08T05:36:08.364Z,-3.20
2018-01-08T05:38:41.155Z,-3.20
2018-01-08T05:41:08.779Z,-3.20
2018-01-08T05:43:36.364Z,-3.20
2018-01-08T05:46:04.742Z,-3.20
2018-01-08T05:48:33.328Z,-3.30
2018-01-08T05:51:00.937Z,-3.30
2018-01-08T05:53:33.053Z,-3.20
2018-01-08T05:56:00.672Z,-3.20
2018-01-08T05:58:42.966Z,-3.20
2018-01-08T06:01:11.358Z,-3.30
2018-01-08T06:03:43.157Z,-3.30
2018-01-08T06:06:10.764Z,-3.30
2018-01-08T06:08:41.766Z,-3.30
2018-01-08T06:11:09.367Z,-3.30
2018-01-08T06:13:50.832Z,-3.30
2018-01-08T06:16:18.452Z,-3.30
2018-01-08T06:18:47.057Z,-3.30
2018-01-08T06:21:14.653Z,-3.30
2018-01-08T06:23:44.958Z,-3.40
2018-01-08T06:26:12.542Z,-3.40
2018-01-08T06:28:53.045Z,-3.30
2018-01-08T06:31:20.638Z,-3.40
2018-01-08T06:34:04.912Z,-3.30
2018-01-08T06:36:33.261Z,-3.40
2018-01-08T06:42:05.093Z,-3.40
2018-01-08T06:44:32.710Z,-3.40
2018-01-08T06:47:04.022Z,-3.40
2018-01-08T06:49:31.637Z,-3.40
2018-01-08T06:51:59.984Z,-3.50
2018-01-08T06:54:27.593Z,-3.50
2018-01-08T06:57:12.630Z,-3.50
2018-01-08T06:59:40.241Z,-3.50
2018-01-08T07:02:18.537Z,-3.50
2018-01-08T07:04:46.158Z,-3.50
2018-01-08T07:07:23.997Z,-3.60
2018-01-08T07:09:51.614Z,-3.50
2018-01-08T07:12:23.643Z,-3.60
2018-01-08T07:14:51.259Z,-3.60
2018-01-08T07:17:32.525Z,-3.60
2018-01-08T07:20:00.138Z,-3.60
2018-01-08T07:22:29.657Z,-3.60
2018-01-08T07:24:57.278Z,-3.60
2018-01-08T07:27:34.768Z,-3.60
2018-01-08T07:30:03.142Z,-3.70
2018-01-08T07:32:31.492Z,-3.70
2018-01-08T07:34:59.084Z,-3.70
2018-01-08T07:37:27.624Z,-3.70
2018-01-08T07:39:55.225Z,-3.70
2018-01-08T07:42:26.142Z,-3.70
2018-01-08T07:44:54.509Z,-3.70
2018-01-08T07:47:22.136Z,-3.70
2018-01-08T07:49:49.729Z,-3.70
2018-01-08T07:52:30.748Z,-3.70
2018-01-08T07:54:58.335Z,-3.70
2018-01-08T07:57:33.562Z,-3.60
2018-01-08T08:00:01.151Z,-3.60
2018-01-08T08:02:45.746Z,-3.50
2018-01-08T08:05:13.353Z,-3.50
2018-01-08T08:08:02.578Z,-3.50
2018-01-08T08:10:30.173Z,-3.50
2018-01-08T08:13:18.896Z,-3.50
2018-01-08T08:15:46.496Z,-3.40
2018-01-08T08:18:14.121Z,-3.40
2018-01-08T08:20:41.704Z,-3.40
2018-01-08T08:23:09.315Z,-3.40
2018-01-08T08:25:37.666Z,-3.30
2018-01-08T08:28:06.252Z,-3.30
2018-01-08T08:30:33.850Z,-3.20
2018-01-08T08:33:01.486Z,-3.10
2018-01-08T08:35:29.080Z,-3.10
2018-01-08T08:37:58.626Z,-3.10
2018-01-08T08:40:26.242Z,-3.10
2018-01-08T08:42:54.768Z,-3.10
2018-01-08T08:45:22.392Z,-3.00
2018-01-08T08:48:04.494Z,-3.00
2018-01-08T08:50:32.111Z,-3.00
2018-01-08T08:53:01.689Z,-3.00
2018-01-08T08:55:29.314Z,-3.00
2018-01-08T08:58:09.747Z,-3.00
2018-01-08T09:00:38.135Z,-2.90
2018-01-08T09:03:06.493Z,-2.90
2018-01-08T09:05:34.114Z,-2.90
2018-01-08T09:08:02.707Z,-2.80
2018-01-08T09:10:30.324Z,-2.70
2018-01-08T09:13:02.012Z,-2.50
2018-01-08T09:15:29.637Z,-2.60
2018-01-08T09:17:57.233Z,-2.50
2018-01-08T09:20:24.818Z,-2.40
2018-01-08T09:23:13.206Z,-2.30
2018-01-08T09:25:40.797Z,-2.20
2018-01-08T09:28:08.401Z,-2.10
2018-01-08T09:30:35.986Z,-2.00
2018-01-08T09:33:03.601Z,-1.80
2018-01-08T09:35:31.190Z,-1.70
2018-01-08T09:37:58.832Z,-1.60
2018-01-08T09:40:26.408Z,-1.50
2018-01-08T09:42:55.781Z,-1.30
2018-01-08T09:45:23.366Z,-1.30
2018-01-08T09:47:51.897Z,-1.20
2018-01-08T09:50:19.530Z,-1.10
2018-01-08T09:52:47.131Z,-1.00
2018-01-08T09:55:14.754Z,-0.80
2018-01-08T10:00:45.425Z,-0.70
2018-01-08T10:03:25.924Z,-0.70
2018-01-08T10:06:12.368Z,-0.70
2018-01-08T10:11:46.968Z,-0.40
2018-01-08T10:14:33.418Z,-0.30
2018-01-08T10:20:00.394Z,-0.20
2018-01-08T10:22:28.029Z,-0.20
2018-01-08T10:25:02.964Z,-0.20
2018-01-08T10:27:31.342Z,0.00
2018-01-08T10:29:58.946Z,-0.10
2018-01-08T10:32:26.570Z,0.00
2018-01-08T10:34:54.160Z,0.10
2018-01-08T10:37:21.782Z,0.20
2018-01-08T10:39:49.388Z,0.30
2018-01-08T10:42:22.596Z,0.30
2018-01-08T10:47:50.140Z,0.50
2018-01-08T10:50:23.316Z,0.50
2018-01-08T10:52:58.606Z,0.50
2018-01-08T10:55:26.180Z,0.60
2018-01-08T10:58:17.017Z,0.70
2018-01-08T11:00:44.606Z,0.90
2018-01-08T11:03:21.349Z,1.00
2018-01-08T11:05:48.921Z,1.00
2018-01-08T11:08:16.505Z,1.10
2018-01-08T11:10:44.113Z,1.10
2018-01-08T11:13:23.554Z,1.30
2018-01-08T11:15:51.167Z,1.30
2018-01-08T11:18:20.757Z,1.40
2018-01-08T11:20:48.367Z,1.40
2018-01-08T11:23:16.715Z,1.50
2018-01-08T11:25:44.316Z,1.50
2018-01-08T11:28:13.654Z,1.60
2018-01-08T11:30:41.252Z,1.60
2018-01-08T11:33:12.766Z,1.70
2018-01-08T11:35:40.367Z,1.80
2018-01-08T11:38:10.663Z,1.90
2018-01-08T11:40:38.231Z,1.90
2018-01-08T11:43:15.698Z,2.00
2018-01-08T11:45:43.282Z,2.10
2018-01-08T11:48:24.604Z,2.20
2018-01-08T11:50:52.175Z,2.20
2018-01-08T11:53:26.295Z,2.30
2018-01-08T11:55:53.865Z,2.50
2018-01-08T11:58:21.473Z,2.50
2018-01-08T12:00:49.077Z,2.60
2018-01-08T12:03:16.691Z,2.70
2018-01-08T12:05:44.270Z,2.70
2018-01-08T12:08:14.538Z,2.80
2018-01-08T12:10:42.147Z,2.80
2018-01-08T12:13:11.499Z,2.90
2018-01-08T12:15:39.106Z,2.90
2018-01-08T12:18:06.714Z,3.00
2018-01-08T12:20:34.329Z,3.00
2018-01-08T12:23:02.841Z,2.80
2018-01-08T12:25:30.453Z,2.70
2018-01-08T12:28:16.745Z,2.60
2018-01-08T12:30:44.385Z,2.70
2018-01-08T12:33:32.883Z,2.70
2018-01-08T12:36:01.265Z,3.00
2018-01-08T12:38:52.270Z,2.90
2018-01-08T12:41:20.633Z,3.20
2018-01-08T12:43:48.206Z,3.10
2018-01-08T12:46:16.584Z,3.30
2018-01-08T12:48:46.843Z,3.30
2018-01-08T12:51:14.421Z,3.20
2018-01-08T12:53:44.032Z,3.40
2018-01-08T12:56:11.613Z,3.40
2018-01-08T12:58:51.516Z,3.50
2018-01-08T13:01:19.094Z,3.50
2018-01-08T13:03:48.714Z,3.50
2018-01-08T13:06:16.285Z,3.30
2018-01-08T13:08:43.906Z,3.20
2018-01-08T13:11:11.477Z,3.20
2018-01-08T13:13:42.242Z,3.10
2018-01-08T13:16:10.584Z,3.10
2018-01-08T13:18:52.230Z,3.10
2018-01-08T13:21:20.569Z,3.00
2018-01-08T13:23:48.182Z,3.00
2018-01-08T13:26:15.752Z,2.90
2018-01-08T13:28:43.323Z,2.80
2018-01-08T13:31:10.917Z,2.70
2018-01-08T13:33:48.334Z,2.60
2018-01-08T13:36:16.701Z,2.20
2018-01-08T13:38:50.238Z,2.20
2018-01-08T13:41:17.832Z,2.20
2018-01-08T13:43:45.401Z,2.20
2018-01-08T13:46:12.993Z,2.30
2018-01-08T13:48:42.319Z,2.10
2018-01-08T13:51:09.925Z,2.10
2018-01-08T13:53:37.503Z,2.00
2018-01-08T13:56:05.882Z,1.90
2018-01-08T13:58:34.260Z,1.90
2018-01-08T14:01:02.656Z,1.90
2018-01-08T14:03:30.278Z,1.90
2018-01-08T14:05:57.848Z,1.90
2018-01-08T14:08:25.446Z,2.00
2018-01-08T14:10:53.030Z,2.10
2018-01-08T14:13:22.551Z,2.20
2018-01-08T14:15:50.126Z,2.10
2018-01-08T14:18:17.739Z,2.20
2018-01-08T14:20:45.335Z,2.10
2018-01-08T14:23:17.664Z,2.10
2018-01-08T14:25:45.274Z,1.90
2018-01-08T14:28:12.858Z,1.90
2018-01-08T14:30:41.222Z,1.80
2018-01-08T14:33:16.467Z,1.70
2018-01-08T14:35:44.845Z,1.70
2018-01-08T14:38:14.187Z,1.50
2018-01-08T14:40:41.816Z,1.50
2018-01-08T14:43:10.153Z,1.40
2018-01-08T14:45:37.731Z,1.40
2018-01-08T14:48:11.070Z,1.30
2018-01-08T14:50:39.410Z,1.10
2018-01-08T14:53:07.794Z,0.90
2018-01-08T14:55:36.128Z,0.80
2018-01-08T14:58:03.749Z,0.70
2018-01-08T15:00:31.328Z,0.70
2018-01-08T15:03:16.567Z,0.60
2018-01-08T15:05:44.924Z,0.40
2018-01-08T15:08:14.540Z,0.30
2018-01-08T15:10:42.889Z,0.10
2018-01-08T15:13:11.442Z,0.10
2018-01-08T15:15:39.102Z,0.10
2018-01-08T15:18:17.814Z,-0.10
2018-01-08T15:20:45.441Z,-0.20
2018-01-08T15:23:15.707Z,-0.30
2018-01-08T15:25:44.073Z,-0.30
2018-01-08T15:28:13.612Z,-0.30
2018-01-08T15:30:41.234Z,-0.40
2018-01-08T15:33:30.591Z,-0.40
2018-01-08T15:35:58.981Z,-0.60
2018-01-08T15:41:30.246Z,-0.60
2018-01-08T15:43:57.829Z,-0.80
2018-01-08T15:46:29.236Z,-0.80
2018-01-08T15:48:57.606Z,-0.80
2018-01-08T15:51:29.774Z,-0.90
2018-01-08T15:53:58.133Z,-0.90
2018-01-08T15:56:25.714Z,-0.90
2018-01-08T15:58:54.085Z,-1.00
2018-01-08T16:01:26.099Z,-1.00
2018-01-08T16:03:53.710Z,-1.10
2018-01-08T16:06:25.515Z,-1.00
2018-01-08T16:08:53.130Z,-1.10
2018-01-08T16:11:30.741Z,-1.10
2018-01-08T16:13:59.129Z,-1.10
2018-01-08T16:16:30.401Z,-1.20
2018-01-08T16:18:57.985Z,-1.10
2018-01-08T16:21:27.607Z,-1.20
2018-01-08T16:23:55.186Z,-1.20
2018-01-08T16:26:23.560Z,-1.30
2018-01-08T16:28:51.908Z,-1.30
2018-01-08T16:31:19.523Z,-1.30
2018-01-08T16:33:47.102Z,-1.30
2018-01-08T16:36:14.725Z,-1.30
2018-01-08T16:38:43.076Z,-1.40
2018-01-08T16:41:19.003Z,-1.40
2018-01-08T16:43:46.588Z,-1.40
2018-01-08T16:46:35.361Z,-1.40
2018-01-08T16:49:03.712Z,-1.40
2018-01-08T16:51:34.560Z,-1.50
2018-01-08T16:54:02.148Z,-1.50
2018-01-08T16:56:30.493Z,-1.50
2018-01-08T16:58:58.101Z,-1.50
2018-01-08T17:01:27.635Z,-1.50
2018-01-08T17:03:55.974Z,-1.50
2018-01-08T17:06:23.553Z,-1.60
2018-01-08T17:08:51.137Z,-1.70
2018-01-08T17:11:18.783Z,-1.70
2018-01-08T17:13:46.369Z,-1.70
2018-01-08T17:16:17.106Z,-1.70
2018-01-08T17:18:44.692Z,-1.70
2018-01-08T17:21:14.080Z,-1.80
2018-01-08T17:23:41.678Z,-1.80
2018-01-08T17:26:16.429Z,-1.80
2018-01-08T17:28:44.013Z,-1.80
2018-01-08T17:31:26.674Z,-1.90
2018-01-08T17:33:54.254Z,-1.90
2018-01-08T17:36:22.877Z,-1.90
2018-01-08T17:38:50.482Z,-1.90
2018-01-08T17:41:20.004Z,-1.90
2018-01-08T17:43:47.614Z,-2.00
2018-01-08T17:46:21.685Z,-2.00
2018-01-08T17:48:49.298Z,-2.00
2018-01-08T17:51:16.902Z,-2.00
2018-01-08T17:53:44.518Z,-2.10
2018-01-08T17:56:14.909Z,-2.10
2018-01-08T17:58:42.529Z,-2.10
2018-01-08T18:01:18.189Z,-2.00
2018-01-08T18:03:45.785Z,-2.10
2018-01-08T18:06:13.398Z,-2.10
2018-01-08T18:08:40.990Z,-2.10
2018-01-08T18:11:09.593Z,-2.20
2018-01-08T18:13:37.173Z,-2.10
2018-01-08T18:16:25.317Z,-2.20
2018-01-08T18:18:52.911Z,-2.10
2018-01-08T18:21:30.727Z,-2.20
2018-01-08T18:23:58.307Z,-2.20
2018-01-08T18:26:26.861Z,-2.10
2018-01-08T18:28:54.461Z,-2.20
2018-01-08T18:34:17.726Z,-2.20
2018-01-08T18:36:45.322Z,-2.20
2018-01-08T18:39:23.162Z,-2.20
2018-01-08T18:41:50.753Z,-2.30
2018-01-08T18:47:20.206Z,-2.30
2018-01-08T18:49:47.816Z,-2.30
2018-01-08T18:52:16.382Z,-2.40
2018-01-08T18:54:43.976Z,-2.40
2018-01-08T18:57:18.005Z,-2.40
2018-01-08T18:59:46.385Z,-2.40
2018-01-08T19:02:27.288Z,-2.40
2018-01-08T19:04:54.882Z,-2.40
2018-01-08T19:07:23.487Z,-2.40
2018-01-08T19:09:51.848Z,-2.40
2018-01-08T19:12:22.902Z,-2.50
2018-01-08T19:14:51.288Z,-2.40
2018-01-08T19:17:41.082Z,-2.50
2018-01-08T19:20:09.970Z,-2.40
2018-01-08T19:22:37.569Z,-2.40
2018-01-08T19:25:05.185Z,-2.40
2018-01-08T19:27:34.577Z,-2.40
2018-01-08T19:30:02.981Z,-2.40
2018-01-08T19:32:34.449Z,-2.40
2018-01-08T19:35:02.057Z,-2.50
2018-01-08T19:37:37.669Z,-2.50
2018-01-08T19:40:05.252Z,-2.40
2018-01-08T19:42:54.258Z,-2.40
2018-01-08T19:45:21.849Z,-2.40
2018-01-08T19:47:50.477Z,-2.40
2018-01-08T19:50:18.820Z,-2.40
2018-01-08T19:53:02.626Z,-2.50
2018-01-08T19:55:30.234Z,-2.40
2018-01-08T19:58:06.286Z,-2.40
2018-01-08T20:00:33.877Z,-2.40
2018-01-08T20:03:03.240Z,-2.40
2018-01-08T20:05:30.866Z,-2.40
2018-01-08T20:08:00.414Z,-2.30
2018-01-08T20:10:28.054Z,-2.40
2018-01-08T20:13:06.682Z,-2.40
2018-01-08T20:15:34.293Z,-2.40
2018-01-08T20:18:01.906Z,-2.40
2018-01-08T20:20:29.532Z,-2.50
2018-01-08T20:23:01.311Z,-2.50
2018-01-08T20:25:28.985Z,-2.40
2018-01-08T20:28:04.006Z,-2.40
2018-01-08T20:30:31.611Z,-2.40
2018-01-08T20:33:10.705Z,-2.50
2018-01-08T20:35:38.317Z,-2.50
2018-01-08T20:38:05.938Z,-2.50
2018-01-08T20:40:33.520Z,-2.50
2018-01-08T20:43:02.917Z,-2.40
2018-01-08T20:45:30.518Z,-2.50
2018-01-08T20:48:05.173Z,-2.50
2018-01-08T20:50:32.769Z,-2.50
2018-01-08T20:53:04.179Z,-2.40
2018-01-08T20:55:31.801Z,-2.40
2018-01-08T20:58:02.476Z,-2.40
2018-01-08T21:00:30.098Z,-2.40
2018-01-08T21:03:03.711Z,-2.40
2018-01-08T21:05:31.328Z,-2.40
2018-01-08T21:07:59.880Z,-2.40
2018-01-08T21:10:27.541Z,-2.40
2018-01-08T21:15:49.920Z,-2.30
2018-01-08T21:18:17.497Z,-2.30
2018-01-08T21:20:59.514Z,-2.30
2018-01-08T21:23:27.104Z,-2.30
2018-01-08T21:25:55.702Z,-2.30
2018-01-08T21:28:23.314Z,-2.30
2018-01-08T21:33:49.896Z,-2.30
2018-01-08T21:36:17.506Z,-2.30
2018-01-08T21:38:56.459Z,-2.30
2018-01-08T21:41:24.090Z,-2.30
2018-01-08T21:43:53.457Z,-2.40
2018-01-08T21:46:21.053Z,-2.40
2018-01-08T21:48:56.976Z,-2.30
2018-01-08T21:51:24.569Z,-2.40
2018-01-08T21:54:09.365Z,-2.30
2018-01-08T21:56:36.982Z,-2.30
2018-01-08T21:59:11.102Z,-2.30
2018-01-08T22:01:39.459Z,-2.30
2018-01-08T22:04:08.287Z,-2.30
2018-01-08T22:06:35.895Z,-2.30
2018-01-08T22:09:05.604Z,-2.30
2018-01-08T22:11:33.225Z,-2.30
2018-01-08T22:14:08.467Z,-2.30
2018-01-08T22:16:36.098Z,-2.30
2018-01-08T22:19:11.072Z,-2.30
2018-01-08T22:21:38.724Z,-2.30
2018-01-08T22:24:14.906Z,-2.30
2018-01-08T22:26:42.530Z,-2.30
2018-01-08T22:29:13.826Z,-2.30
2018-01-08T22:31:41.426Z,-2.30
2018-01-08T22:34:10.007Z,-2.20
2018-01-08T22:36:37.599Z,-2.20
2018-01-08T22:39:07.391Z,-2.30
2018-01-08T22:41:35.748Z,-2.20
2018-01-08T22:44:08.110Z,-2.20
2018-01-08T22:46:35.698Z,-2.20
2018-01-08T22:49:03.294Z,-2.20
2018-01-08T22:51:30.910Z,-2.20
2018-01-08T22:54:00.378Z,-2.10
2018-01-08T22:56:28.003Z,-2.20
2018-01-08T22:59:01.694Z,-2.10
2018-01-08T23:01:29.325Z,-2.10
2018-01-08T23:04:05.300Z,-2.10
2018-01-08T23:06:32.933Z,-2.10
2018-01-08T23:09:09.030Z,-2.10
2018-01-08T23:11:36.657Z,-2.10
2018-01-08T23:14:18.329Z,-2.10
2018-01-08T23:16:45.961Z,-2.20
2018-01-08T23:19:13.624Z,-2.00
2018-01-08T23:21:41.222Z,-2.10
2018-01-08T23:24:08.868Z,-2.10
2018-01-08T23:26:36.456Z,-2.10
2018-01-08T23:29:13.310Z,-2.00
2018-01-08T23:31:40.903Z,-2.10
2018-01-08T23:34:14.347Z,-2.00
2018-01-08T23:36:41.929Z,-2.00
2018-01-08T23:39:19.370Z,-2.00
2018-01-08T23:41:46.954Z,-2.10
2018-01-08T23:44:14.590Z,-2.00
2018-01-08T23:46:42.182Z,-2.10
2018-01-08T23:49:15.620Z,-2.00
2018-01-08T23:51:43.992Z,-1.90
2018-01-08T23:54:21.448Z,-1.90
2018-01-08T23:56:49.050Z,-1.90
2018-01-08T23:59:17.475Z,-1.90
